METAR Data
IDs: Format: Raw Decoded Include TAF

Data at: 1535 UTC 04 Aug 2021

RJCH 041100Z 00000KT 9999 FEW015 SCT080 24/23 Q1008